Time;durP1;ratioP1;P1;durP2;ratioP2;P2;SDS_P1;SDS_P2;PMS_P1;PMS_P2;Temp;Humidity;BMP_temperature;BMP_pressure;BME280_temperature;BME280_humidity;BME280_pressure;Samples;Min_cycle;Max_cycle;Signal;HPM_P1;HPM_P2
2024/02/17 00:02:15;;;;;;;3.25;2.58;;;;;;;-145.69;64.86;52196.84;5113062;28;20196;-82
2024/02/17 00:04:41;;;;;;;9.32;2.88;;;;;;;-145.69;64.24;52163.19;5113643;28;20254;-81
2024/02/17 00:07:08;;;;;;;5.88;2.80;;;;;;;-145.69;64.41;52175.06;5113142;28;20201;-81
2024/02/17 00:09:35;;;;;;;4.75;2.67;;;;;;;-145.69;64.38;52188.91;5113183;28;20250;-81
2024/02/17 00:12:02;;;;;;;6.25;2.65;;;;;;;-145.69;64.29;52206.75;5113309;28;20205;-82
2024/02/17 00:14:28;;;;;;;5.88;2.53;;;;;;;-145.69;64.65;52214.66;5112832;28;20205;-81
2024/02/17 00:16:55;;;;;;;3.90;2.53;;;;;;;-145.69;64.61;52202.78;5113261;28;20205;-81
2024/02/17 00:19:21;;;;;;;6.10;3.03;;;;;;;-145.69;64.56;52200.81;5113420;28;20193;-80
2024/02/17 00:21:48;;;;;;;5.07;2.58;;;;;;;-145.69;64.96;52224.56;5113342;28;20209;-81
2024/02/17 00:24:14;;;;;;;7.18;2.53;;;;;;;-145.69;64.99;52194.88;5113110;28;20197;-81
2024/02/17 00:26:42;;;;;;;5.03;2.55;;;;;;;-145.69;65.20;52216.66;5113346;28;20229;-81
2024/02/17 00:29:09;;;;;;;5.03;2.60;;;;;;;-145.69;65.11;52220.59;5112796;28;20729;-81
2024/02/17 00:31:35;;;;;;;8.35;2.50;;;;;;;-145.69;64.59;52210.72;5111995;28;20194;-81
2024/02/17 00:34:02;;;;;;;4.85;2.58;;;;;;;-145.69;64.59;52188.91;5112774;28;20254;-82
2024/02/17 00:36:28;;;;;;;5.88;2.50;;;;;;;-145.69;65.10;52186.94;5112895;28;20201;-81
2024/02/17 00:38:54;;;;;;;4.45;2.33;;;;;;;-145.69;65.19;52188.91;5113127;28;20678;-81
2024/02/17 00:41:21;;;;;;;3.70;2.10;;;;;;;-145.69;64.86;52186.94;5113115;28;20205;-81
2024/02/17 00:43:49;;;;;;;3.08;2.08;;;;;;;-145.69;64.69;52179.03;5113063;28;20247;-81
2024/02/17 00:46:16;;;;;;;3.72;2.45;;;;;;;-145.69;65.29;52206.75;5112579;28;20197;-80
2024/02/17 00:48:42;;;;;;;4.40;2.28;;;;;;;-145.69;64.65;52218.63;5113077;28;20208;-80
2024/02/17 00:51:09;;;;;;;4.22;2.00;;;;;;;-145.69;64.54;52214.66;5113021;28;20231;-80
2024/02/17 00:53:37;;;;;;;3.13;1.75;;;;;;;-145.69;64.40;52226.53;5113132;28;20201;-81
2024/02/17 00:56:04;;;;;;;2.20;1.50;;;;;;;-145.69;65.04;52179.03;5112716;28;20673;-81
2024/02/17 00:58:30;;;;;;;2.78;1.50;;;;;;;-145.69;64.85;52161.19;5112795;28;20198;-81
2024/02/17 01:00:58;;;;;;;3.72;1.67;;;;;;;-145.69;64.69;52194.88;5112018;28;20193;-80
2024/02/17 01:03:24;;;;;;;1.65;1.40;;;;;;;-145.69;65.23;52218.63;5111970;28;20186;-81
2024/02/17 01:05:51;;;;;;;2.10;1.50;;;;;;;-145.69;64.86;52230.50;5112090;28;20204;-81
2024/02/17 01:08:18;;;;;;;1.55;1.20;;;;;;;-145.69;64.81;52179.03;5111418;28;20206;-81
2024/02/17 01:10:44;;;;;;;4.22;1.20;;;;;;;-145.69;64.74;52163.19;5112498;28;20225;-81
2024/02/17 01:13:12;;;;;;;2.28;1.58;;;;;;;-145.69;64.30;52190.91;5112758;28;20201;-81
2024/02/17 01:15:39;;;;;;;2.58;1.50;;;;;;;-145.69;64.54;52181.00;5112921;28;20259;-81
2024/02/17 01:18:07;;;;;;;4.20;1.40;;;;;;;-145.69;64.40;52190.91;5112600;28;20197;-80
2024/02/17 01:20:34;;;;;;;2.65;1.55;;;;;;;-145.69;64.55;52206.75;5112540;28;20202;-81
2024/02/17 01:23:00;;;;;;;1.58;1.33;;;;;;;-145.69;64.34;52214.66;5112679;28;20197;-82
2024/02/17 01:25:27;;;;;;;2.97;1.50;;;;;;;-145.69;64.87;52204.75;5112476;28;20442;-81
2024/02/17 01:27:53;;;;;;;2.00;1.25;;;;;;;-145.69;64.49;52208.72;5116575;28;20201;-82
2024/02/17 01:30:20;;;;;;;2.42;1.55;;;;;;;-145.69;64.28;52210.72;5116579;28;20617;-81
2024/02/17 01:32:46;;;;;;;1.80;1.33;;;;;;;-145.69;64.51;52196.84;5115885;28;20202;-82
2024/02/17 01:35:14;;;;;;;1.60;1.50;;;;;;;-145.69;64.76;52190.91;5116347;28;20201;-81
2024/02/17 01:37:41;;;;;;;1.80;1.42;;;;;;;-145.69;64.94;52218.63;5116291;28;20640;-81
2024/02/17 01:40:08;;;;;;;3.80;1.42;;;;;;;-145.69;65.70;52242.38;5116210;28;20201;-82
2024/02/17 01:42:34;;;;;;;2.42;1.35;;;;;;;-145.69;66.01;52222.59;5116255;28;20205;-82
2024/02/17 01:45:03;;;;;;;2.13;1.48;;;;;;;-145.69;66.07;52216.66;5116245;28;20197;-82
2024/02/17 01:47:30;;;;;;;1.40;1.30;;;;;;;-145.69;66.06;52206.75;5116584;28;20220;-82
2024/02/17 01:49:57;;;;;;;4.57;1.70;;;;;;;-145.69;66.24;52210.72;5115364;28;20266;-81
2024/02/17 01:52:25;;;;;;;2.40;1.42;;;;;;;-145.69;66.16;52204.75;5116083;28;20587;-81
2024/02/17 01:54:51;;;;;;;2.88;1.70;;;;;;;-145.69;66.05;52234.47;5115952;28;20651;-81
2024/02/17 01:57:17;;;;;;;2.83;1.90;;;;;;;-145.69;66.41;52186.94;5115840;28;20193;-81
2024/02/17 01:59:44;;;;;;;2.47;1.60;;;;;;;-145.69;66.82;52234.47;5115354;28;20442;-81
2024/02/17 02:02:11;;;;;;;5.13;2.25;;;;;;;-145.69;66.72;52198.81;5115608;28;20200;-81
2024/02/17 02:04:38;;;;;;;3.53;1.95;;;;;;;-145.69;67.07;52218.63;5115438;28;20694;-81
2024/02/17 02:07:05;;;;;;;6.03;2.30;;;;;;;-145.69;66.48;52234.47;5115309;28;21051;-81
2024/02/17 02:09:32;;;;;;;2.60;1.83;;;;;;;-145.69;66.63;52206.75;5115809;28;20201;-81
2024/02/17 02:11:59;;;;;;;2.85;1.63;;;;;;;-145.69;66.44;52228.53;5115823;28;20209;-82
2024/02/17 02:14:25;;;;;;;2.03;1.58;;;;;;;-145.69;66.53;52210.72;5115616;28;20202;-82
2024/02/17 02:16:52;;;;;;;2.72;1.90;;;;;;;-145.69;66.38;52214.66;5116082;28;20209;-82
2024/02/17 02:19:18;;;;;;;3.00;1.73;;;;;;;-145.69;66.49;52224.56;5115157;28;20192;-82
2024/02/17 02:21:45;;;;;;;3.13;1.88;;;;;;;-145.69;65.86;52206.75;5115189;28;20193;-81
2024/02/17 02:24:12;;;;;;;2.25;1.92;;;;;;;-145.69;65.96;52232.50;5115231;28;20296;-82
2024/02/17 02:26:40;;;;;;;2.97;1.85;;;;;;;-145.69;66.05;52246.34;5115426;28;20227;-81
2024/02/17 02:29:07;;;;;;;3.28;2.38;;;;;;;-145.69;66.68;52196.84;5115470;28;20204;-82
2024/02/17 02:31:33;;;;;;;5.75;1.70;;;;;;;-145.69;66.26;52210.72;5115255;28;20221;-81
2024/02/17 02:34:00;;;;;;;2.75;1.92;;;;;;;-145.69;66.36;52179.03;5115530;28;20205;-81
2024/02/17 02:36:26;;;;;;;3.95;1.85;;;;;;;-145.69;66.14;52206.75;5114671;28;20189;-82
2024/02/17 02:38:54;;;;;;;8.00;2.22;;;;;;;-145.69;66.11;52206.75;5115108;28;20205;-80
2024/02/17 02:41:20;;;;;;;4.13;1.80;;;;;;;-145.69;66.46;52210.72;5115415;28;20198;-81
2024/02/17 02:43:49;;;;;;;3.78;2.25;;;;;;;-145.69;66.33;52226.53;5114935;28;20655;-82
2024/02/17 02:46:15;;;;;;;3.97;2.30;;;;;;;-145.69;66.31;52200.81;5114934;28;20583;-81
2024/02/17 02:48:42;;;;;;;4.00;2.10;;;;;;;-145.69;66.57;52218.63;5115081;28;20197;-82
2024/02/17 02:51:09;;;;;;;5.75;2.00;;;;;;;-145.69;66.66;52202.78;5114908;28;20225;-82
2024/02/17 02:53:35;;;;;;;4.05;2.53;;;;;;;-145.69;66.80;52210.72;5114935;28;20197;-82
2024/02/17 02:56:01;;;;;;;5.68;2.83;;;;;;;-145.69;66.43;52250.31;5115085;28;20212;-82
2024/02/17 02:58:28;;;;;;;3.92;2.30;;;;;;;-145.69;66.27;52204.75;5114461;28;20274;-82
2024/02/17 03:00:56;;;;;;;5.13;3.33;;;;;;;-145.69;66.60;52194.88;5114512;28;20201;-82
2024/02/17 03:03:22;;;;;;;3.97;2.30;;;;;;;-145.69;66.69;52206.75;5114809;28;20197;-81
2024/02/17 03:05:49;;;;;;;4.45;2.50;;;;;;;-145.69;67.08;52204.75;5114703;28;20559;-82
2024/02/17 03:08:17;;;;;;;5.75;2.67;;;;;;;-145.69;67.03;52224.56;5114669;28;20209;-81
2024/02/17 03:10:44;;;;;;;3.63;2.38;;;;;;;-145.69;67.23;52222.59;5114479;28;20722;-82
2024/02/17 03:13:10;;;;;;;4.53;2.40;;;;;;;-145.69;67.53;52212.69;5114436;28;20563;-82
2024/02/17 03:15:36;;;;;;;2.70;2.25;;;;;;;-145.69;67.23;52240.41;5114460;28;20208;-82
2024/02/17 03:18:05;;;;;;;3.72;2.38;;;;;;;-145.69;67.97;52208.72;5114314;28;20198;-82
2024/02/17 03:20:31;;;;;;;4.95;2.63;;;;;;;-145.69;68.10;52222.59;5114358;28;20205;-82
2024/02/17 03:22:58;;;;;;;4.03;2.50;;;;;;;-145.69;68.24;52218.63;5114136;28;20202;-82
2024/02/17 03:25:25;;;;;;;2.60;2.00;;;;;;;-145.69;67.70;52224.56;5114468;28;20209;-82
2024/02/17 03:27:51;;;;;;;3.00;2.20;;;;;;;-145.69;68.35;52184.97;5114194;28;20247;-83
2024/02/17 03:30:18;;;;;;;3.05;2.20;;;;;;;-145.69;68.10;52175.06;5114008;28;20304;-82
2024/02/17 03:32:44;;;;;;;4.80;2.30;;;;;;;-145.69;68.37;52196.84;5113869;28;20193;-82
2024/02/17 03:35:12;;;;;;;2.97;2.28;;;;;;;-145.69;68.88;52214.66;5113777;28;20193;-83
2024/02/17 03:37:39;;;;;;;2.40;1.90;;;;;;;-145.69;68.87;52220.59;5113661;28;20663;-83
2024/02/17 03:40:08;;;;;;;2.22;1.85;;;;;;;-145.69;68.67;52210.72;5114101;28;20288;-82
2024/02/17 03:42:35;;;;;;;3.30;1.90;;;;;;;-145.69;68.44;52260.22;5114097;28;20197;-82
2024/02/17 03:45:01;;;;;;;2.95;2.00;;;;;;;-145.69;68.20;52206.75;5113924;28;20205;-82
2024/02/17 03:47:28;;;;;;;3.22;2.08;;;;;;;-145.69;68.34;52222.59;5113817;28;20218;-82
2024/02/17 03:49:54;;;;;;;3.28;2.08;;;;;;;-145.69;68.92;52226.53;5113073;28;20232;-82
2024/02/17 03:52:22;;;;;;;3.03;2.10;;;;;;;-145.69;68.91;52200.81;5113785;28;20228;-82
2024/02/17 03:54:49;;;;;;;2.38;2.00;;;;;;;-145.69;69.14;52190.91;5113624;28;20197;-81
2024/02/17 03:57:17;;;;;;;4.40;1.90;;;;;;;-145.69;68.97;52222.59;5113783;28;20208;-82
2024/02/17 03:59:43;;;;;;;2.70;1.85;;;;;;;-145.69;68.87;52184.97;5113517;28;20204;-83
2024/02/17 04:02:09;;;;;;;2.22;1.90;;;;;;;-145.69;69.77;52230.50;5113357;28;20552;-80
2024/02/17 04:04:36;;;;;;;6.07;1.90;;;;;;;-145.69;69.59;52204.75;5113551;28;20582;-82
2024/02/17 04:07:02;;;;;;;3.22;2.20;;;;;;;-145.69;69.46;52220.59;5104427;28;20675;-83
2024/02/17 04:09:30;;;;;;;2.38;2.17;;;;;;;-145.69;69.51;52250.31;5113467;28;20204;-81
2024/02/17 04:11:57;;;;;;;2.75;2.17;;;;;;;-145.69;69.59;52226.53;5113355;28;20236;-80
2024/02/17 04:14:24;;;;;;;2.92;1.88;;;;;;;-145.69;69.51;52200.81;5113088;28;20209;-81
2024/02/17 04:16:51;;;;;;;4.20;1.95;;;;;;;-145.69;69.56;52206.75;5113573;28;20556;-81
2024/02/17 04:19:17;;;;;;;2.00;1.80;;;;;;;-145.69;69.72;52220.59;5113307;28;20224;-82
2024/02/17 04:21:45;;;;;;;2.92;1.67;;;;;;;-145.69;69.80;52177.03;5113008;28;20193;-83
2024/02/17 04:24:12;;;;;;;7.00;2.30;;;;;;;-145.69;69.77;52212.69;5113570;28;20284;-81
2024/02/17 04:26:40;;;;;;;3.25;2.20;;;;;;;-145.69;69.96;52236.44;5113366;28;20225;-81
2024/02/17 04:29:06;;;;;;;3.13;1.75;;;;;;;-145.69;70.21;52198.81;5113377;28;20213;-83
2024/02/17 04:31:33;;;;;;;2.45;1.85;;;;;;;-145.69;70.02;52230.50;5112607;28;20259;-83
2024/02/17 04:33:59;;;;;;;6.32;1.90;;;;;;;-145.69;69.63;52186.94;5112089;27;20200;-82
2024/02/17 04:36:25;;;;;;;1.90;1.67;;;;;;;-145.69;70.13;52244.38;5112779;28;20227;-82
2024/02/17 04:38:52;;;;;;;2.08;1.67;;;;;;;-145.69;69.94;52210.72;5112926;27;20197;-82
2024/02/17 04:41:18;;;;;;;4.53;2.00;;;;;;;-145.69;70.18;52240.41;5112820;28;20198;-82
2024/02/17 04:43:46;;;;;;;2.58;1.77;;;;;;;-145.69;70.09;52228.53;5113039;28;20250;-82
2024/02/17 04:46:13;;;;;;;3.15;1.50;;;;;;;-145.69;70.52;52230.50;5113091;28;20551;-82
2024/02/17 04:48:39;;;;;;;1.80;1.52;;;;;;;-145.69;70.41;52216.66;5112986;28;20193;-83
2024/02/17 04:51:09;;;;;;;3.00;1.88;;;;;;;-145.69;69.55;52208.72;5112715;28;20217;-82
2024/02/17 04:53:35;;;;;;;2.08;1.30;;;;;;;-145.69;70.59;52242.38;5113189;28;20217;-81
2024/02/17 04:56:02;;;;;;;1.20;1.10;;;;;;;-145.69;72.16;52238.44;5112927;28;20201;-82
2024/02/17 04:58:28;;;;;;;0.82;0.82;;;;;;;-145.69;71.55;52246.34;5112820;28;20574;-80
2024/02/17 05:00:56;;;;;;;1.17;0.90;;;;;;;-145.69;72.15;52234.47;5113613;28;20201;-80
2024/02/17 05:03:26;;;;;;;1.10;1.00;;;;;;;-145.69;72.49;52246.34;5114895;28;20190;-81
2024/02/17 05:05:53;;;;;;;1.05;0.90;;;;;;;-145.69;72.34;52246.34;5116596;28;20197;-80
2024/02/17 05:08:19;;;;;;;2.17;1.03;;;;;;;-145.69;73.19;52218.63;5116691;28;20201;-80
2024/02/17 05:10:46;;;;;;;1.10;1.00;;;;;;;-145.69;73.50;52226.53;5116578;28;20622;-80
2024/02/17 05:13:12;;;;;;;1.03;0.93;;;;;;;-145.69;73.52;52236.44;5117026;28;20198;-81
2024/02/17 05:15:38;;;;;;;1.20;1.10;;;;;;;-145.69;72.89;52254.28;5116433;28;20242;-81
2024/02/17 05:18:06;;;;;;;2.23;1.50;;;;;;;-145.69;73.33;52262.19;5116994;28;20196;-80
2024/02/17 05:20:33;;;;;;;1.50;1.40;;;;;;;-145.69;73.33;52226.53;5116802;28;20197;-80
2024/02/17 05:22:59;;;;;;;3.03;1.60;;;;;;;-145.69;74.06;52254.28;5116668;28;20198;-80
2024/02/17 05:25:26;;;;;;;2.20;1.60;;;;;;;-145.69;73.52;52252.28;5116706;27;20204;-81
2024/02/17 05:27:53;;;;;;;2.13;1.73;;;;;;;-145.69;73.69;52238.44;5116579;27;20643;-81
2024/02/17 05:30:19;;;;;;;2.60;1.60;;;;;;;-145.69;72.00;52238.44;5116410;28;20208;-81
2024/02/17 05:32:46;;;;;;;3.23;2.20;;;;;;;-145.69;72.40;52208.72;5116600;28;20229;-81
2024/02/17 05:35:14;;;;;;;3.43;1.93;;;;;;;-145.69;71.59;52289.91;5116270;28;20211;-81
2024/02/17 05:37:41;;;;;;;2.30;2.10;;;;;;;-145.69;71.94;52274.06;5116347;28;20193;-81
2024/02/17 05:40:08;;;;;;;2.33;1.67;;;;;;;-145.69;71.88;52266.16;5116627;28;20204;-81
2024/02/17 05:42:35;;;;;;;3.10;2.00;;;;;;;-145.69;71.54;52244.38;5116410;28;20201;-82
2024/02/17 05:45:02;;;;;;;3.43;1.63;;;;;;;-145.69;71.27;52254.28;5115997;28;20197;-82
2024/02/17 05:47:29;;;;;;;2.90;1.70;;;;;;;-145.69;72.05;52258.22;5116328;28;20262;-81
2024/02/17 05:49:56;;;;;;;2.93;1.67;;;;;;;-145.69;71.30;52282.00;5115996;27;20234;-81
2024/02/17 05:52:24;;;;;;;3.77;1.80;;;;;;;-145.69;71.06;52268.13;5115705;28;20225;-81
2024/02/17 05:54:50;;;;;;;2.47;1.80;;;;;;;-145.69;70.89;52262.19;5116136;28;20197;-80
2024/02/17 05:57:17;;;;;;;1.57;1.30;;;;;;;-145.69;70.90;52272.09;5115963;28;20194;-80
2024/02/17 05:59:43;;;;;;;4.50;1.80;;;;;;;-145.69;70.71;52254.28;5116205;28;20201;-80
2024/02/17 06:02:09;;;;;;;2.33;1.77;;;;;;;-145.69;70.60;52278.03;5115770;28;20208;-80
2024/02/17 06:04:36;;;;;;;4.07;2.10;;;;;;;-145.69;70.61;52248.34;5115883;27;20193;-80
2024/02/17 06:07:03;;;;;;;2.60;2.00;;;;;;;-145.69;70.68;52238.44;5115050;28;20676;-82
2024/02/17 06:09:31;;;;;;;2.47;1.77;;;;;;;-145.69;70.96;52238.44;5095445;28;20252;-82
2024/02/17 06:11:57;;;;;;;2.60;2.03;;;;;;;-145.69;70.60;52234.47;5094949;28;20233;-82
2024/02/17 06:14:24;;;;;;;3.40;2.10;;;;;;;-145.69;70.70;52234.47;5110670;28;20560;-82
2024/02/17 06:16:50;;;;;;;5.03;2.17;;;;;;;-145.69;70.65;52272.09;5115805;28;20202;-81
2024/02/17 06:22:01;;;;;;;4.97;3.00;;;;;;;-145.69;69.96;52285.97;5115537;28;20319;-81
2024/02/17 06:24:27;;;;;;;6.33;3.47;;;;;;;-145.69;70.03;52278.03;5115228;28;20204;-81
2024/02/17 06:26:55;;;;;;;7.83;4.57;;;;;;;-145.69;70.63;52222.59;5115171;27;20201;-82
2024/02/17 06:29:22;;;;;;;8.95;5.57;;;;;;;-145.69;72.38;52238.44;5114181;28;20432;-81
2024/02/17 06:31:48;;;;;;;7.50;4.77;;;;;;;-145.69;71.35;52238.44;5115207;28;20399;-81
2024/02/17 06:34:15;;;;;;;12.47;6.80;;;;;;;-145.69;70.97;52254.28;5115185;28;20197;-81
2024/02/17 06:36:42;;;;;;;11.60;6.87;;;;;;;-145.69;70.21;52242.38;5115089;28;20201;-82
2024/02/17 06:39:09;;;;;;;14.33;6.43;;;;;;;-145.69;71.13;52224.56;5114871;28;20204;-81
2024/02/17 06:41:35;;;;;;;8.50;5.00;;;;;;;-145.69;70.95;52242.38;5115215;28;20293;-82
2024/02/17 06:44:03;;;;;;;15.33;7.80;;;;;;;-145.69;70.90;52270.13;5114104;27;20201;-82
2024/02/17 06:46:30;;;;;;;13.27;7.20;;;;;;;-145.69;70.56;52285.97;5115086;28;20644;-82
2024/02/17 06:48:57;;;;;;;13.37;6.93;;;;;;;-145.69;71.35;52266.16;5115040;28;20252;-82
2024/02/17 06:51:23;;;;;;;9.47;5.40;;;;;;;-145.69;71.69;52226.53;5114848;28;20217;-82
2024/02/17 06:53:50;;;;;;;8.37;5.20;;;;;;;-145.69;71.42;52244.38;5115187;28;20266;-81
2024/02/17 06:56:16;;;;;;;7.43;4.33;;;;;;;-145.69;71.41;52232.50;5114633;28;20209;-81
2024/02/17 06:58:43;;;;;;;9.83;5.00;;;;;;;-145.69;71.02;52285.97;5114626;27;20247;-81
2024/02/17 07:01:10;;;;;;;12.60;5.37;;;;;;;-145.69;70.90;52268.13;5114792;28;20209;-82
2024/02/17 07:03:37;;;;;;;12.43;5.60;;;;;;;-145.69;70.83;52262.19;5114573;28;20198;-81
2024/02/17 07:06:04;;;;;;;10.87;6.33;;;;;;;-145.69;71.17;52285.97;5114900;28;20208;-81
2024/02/17 07:08:31;;;;;;;17.33;7.87;;;;;;;-145.69;70.64;52240.41;5114651;28;20282;-81
2024/02/17 07:10:57;;;;;;;13.97;6.80;;;;;;;-145.69;70.74;52252.28;5114496;28;20221;-81
2024/02/17 07:13:24;;;;;;;9.57;5.20;;;;;;;-145.69;71.44;52260.22;5114538;28;20231;-82
2024/02/17 07:15:50;;;;;;;13.93;5.77;;;;;;;-145.69;71.19;52242.38;5113938;28;20231;-82
2024/02/17 07:18:18;;;;;;;12.30;5.33;;;;;;;-145.69;70.53;52272.09;5114417;28;20203;-82
2024/02/17 07:20:46;;;;;;;9.57;5.17;;;;;;;-145.69;71.19;52254.28;5114465;28;20201;-82
2024/02/17 07:23:15;;;;;;;16.27;7.53;;;;;;;-145.69;71.30;52250.31;5113322;28;20194;-81
2024/02/17 07:25:44;;;;;;;15.93;6.80;;;;;;;-145.69;71.72;52250.31;5114262;28;20197;-81
2024/02/17 07:28:12;;;;;;;17.37;6.33;;;;;;;-145.69;71.62;52258.22;5114217;28;20228;-81
2024/02/17 07:30:41;;;;;;;16.77;7.73;;;;;;;-145.69;70.73;52252.28;5113777;28;20204;-81
2024/02/17 07:33:08;;;;;;;258.17;75.53;;;;;;;-145.69;70.92;52282.00;5113689;28;20640;-81
2024/02/17 07:35:40;;;;;;;225.80;75.93;;;;;;;-145.69;71.37;52250.31;5113774;28;20202;-81
2024/02/17 07:38:07;;;;;;;65.40;23.87;;;;;;;-145.69;70.88;52232.50;5114171;28;20246;-81
2024/02/17 07:40:33;;;;;;;24.53;10.70;;;;;;;-145.69;70.28;52234.47;5114099;28;20278;-81
2024/02/17 07:43:00;;;;;;;17.73;9.33;;;;;;;-145.69;70.89;52250.31;5113756;28;20206;-81
2024/02/17 07:45:27;;;;;;;11.33;6.13;;;;;;;-145.69;70.01;52287.94;5113257;28;20656;-81
2024/02/17 07:47:53;;;;;;;8.27;5.47;;;;;;;-145.69;70.77;52276.06;5113443;28;20875;-80
2024/02/17 07:50:20;;;;;;;16.40;8.43;;;;;;;-145.69;71.36;52240.41;5113293;28;20233;-81
2024/02/17 07:52:47;;;;;;;16.23;8.67;;;;;;;-145.69;71.12;52270.13;5113427;28;20599;-81
2024/02/17 07:55:14;;;;;;;18.40;9.50;;;;;;;-145.69;70.08;52244.38;5113638;28;20197;-81
2024/02/17 07:57:41;;;;;;;19.70;10.17;;;;;;;-145.69;70.70;52278.03;5113507;28;20193;-80
2024/02/17 08:00:08;;;;;;;17.23;9.67;;;;;;;-145.69;70.55;52264.16;5113251;28;20243;-81
2024/02/17 08:02:35;;;;;;;13.63;7.63;;;;;;;-145.69;70.18;52230.50;5113422;28;20201;-81
2024/02/17 08:05:02;;;;;;;16.20;8.97;;;;;;;-145.69;70.07;52248.34;5113671;28;20341;-81
2024/02/17 08:07:28;;;;;;;14.77;8.40;;;;;;;-145.69;71.00;52236.44;5113528;28;20204;-80
2024/02/17 08:09:56;;;;;;;17.33;7.73;;;;;;;-145.69;71.05;52258.22;5113236;28;20197;-81
2024/02/17 08:12:23;;;;;;;16.43;8.50;;;;;;;-145.69;71.10;52236.44;5113098;28;20225;-81
2024/02/17 08:14:52;;;;;;;13.57;7.87;;;;;;;-145.69;70.72;52230.50;5113453;28;20208;-82
2024/02/17 08:17:22;;;;;;;15.87;8.40;;;;;;;-145.69;70.42;52230.50;5112817;28;20197;-82
2024/02/17 08:19:51;;;;;;;20.97;11.43;;;;;;;-145.69;70.19;52254.28;5113443;28;20201;-81
2024/02/17 08:22:17;;;;;;;17.60;9.63;;;;;;;-145.69;70.85;52246.34;5112581;28;20594;-82
2024/02/17 08:24:43;;;;;;;16.45;8.90;;;;;;;-145.69;70.85;52230.50;5113681;28;20201;-81
2024/02/17 08:27:13;;;;;;;17.13;9.15;;;;;;;-145.69;70.33;52236.44;5113018;28;20808;-81
2024/02/17 08:29:42;;;;;;;13.55;7.60;;;;;;;-145.69;71.02;52236.44;5112992;28;20274;-81
2024/02/17 08:32:08;;;;;;;19.42;9.18;;;;;;;-145.69;70.26;52208.72;5113098;28;20220;-82
2024/02/17 08:34:35;;;;;;;16.73;8.80;;;;;;;-145.69;70.55;52218.63;5113208;28;20602;-81
2024/02/17 08:37:01;;;;;;;15.37;8.37;;;;;;;-145.69;70.45;52230.50;5112836;28;20205;-82
2024/02/17 08:39:28;;;;;;;15.45;8.60;;;;;;;-145.69;69.14;52230.50;5113103;28;20212;-82
2024/02/17 08:41:55;;;;;;;14.90;7.90;;;;;;;-145.69;70.18;52262.19;5113140;28;20204;-81
2024/02/17 08:44:23;;;;;;;12.60;7.35;;;;;;;-145.69;70.48;52234.47;5112586;28;20200;-81
2024/02/17 08:46:49;;;;;;;10.98;6.32;;;;;;;-145.69;69.63;52260.22;5112707;28;20201;-81
2024/02/17 08:49:16;;;;;;;11.20;6.75;;;;;;;-145.69;69.16;52228.53;5112569;28;20611;-80
2024/02/17 08:51:42;;;;;;;12.15;6.63;;;;;;;-145.69;69.19;52230.50;5110729;28;20206;-81
2024/02/17 08:54:10;;;;;;;11.95;6.50;;;;;;;-145.69;70.87;52250.31;5112803;28;20197;-84
2024/02/17 08:56:36;;;;;;;12.57;6.70;;;;;;;-145.69;68.50;52210.72;5110605;28;20201;-80
2024/02/17 08:59:02;;;;;;;14.27;7.05;;;;;;;-145.69;68.81;52236.44;5112374;28;20201;-81
2024/02/17 09:01:30;;;;;;;11.13;6.80;;;;;;;-145.69;68.03;52194.88;5111978;28;20246;-80
2024/02/17 09:03:57;;;;;;;12.18;7.22;;;;;;;-145.69;65.32;52206.75;5112397;28;20197;-81
2024/02/17 09:06:23;;;;;;;12.38;7.13;;;;;;;-145.69;68.15;52214.66;5112374;28;20292;-81
2024/02/17 09:08:50;;;;;;;10.75;6.88;;;;;;;-145.69;67.99;52242.38;5113069;28;20296;-81
2024/02/17 09:11:16;;;;;;;13.25;7.32;;;;;;;-145.69;66.01;52230.50;5112723;28;20205;-81
2024/02/17 09:13:43;;;;;;;12.20;7.07;;;;;;;-145.69;68.57;52244.38;5112126;28;20225;-81
2024/02/17 09:16:09;;;;;;;13.00;7.00;;;;;;;-145.69;67.50;52230.50;5112383;28;20197;-81
2024/02/17 09:18:37;;;;;;;15.20;8.20;;;;;;;-145.69;67.31;52218.63;5112537;28;20201;-81
2024/02/17 09:21:05;;;;;;;13.90;7.63;;;;;;;-145.69;67.11;52236.44;5112216;28;20204;-81
2024/02/17 09:23:31;;;;;;;13.27;8.32;;;;;;;-145.69;63.86;52230.50;5112917;28;20206;-83
2024/02/17 09:25:58;;;;;;;15.30;8.82;;;;;;;-145.69;62.87;52246.34;5112617;28;20208;-81
2024/02/17 09:28:27;;;;;;;16.75;8.18;;;;;;;-145.69;63.44;52190.91;5112740;28;20204;-81
2024/02/17 09:30:54;;;;;;;11.25;6.90;;;;;;;-145.69;65.58;52234.47;5112383;28;20202;-81
2024/02/17 09:33:27;;;;;;;16.50;8.27;;;;;;;-145.69;63.93;52216.66;5112261;28;20236;-81
2024/02/17 09:35:54;;;;;;;12.13;7.68;;;;;;;-145.69;60.89;52252.28;5112584;28;20236;-81
2024/02/17 09:38:21;;;;;;;11.68;7.93;;;;;;;-145.69;63.06;52210.72;5112527;28;20281;-81
2024/02/17 09:40:48;;;;;;;12.50;7.90;;;;;;;-145.69;63.49;52214.66;5112216;28;20254;-81
2024/02/17 09:43:15;;;;;;;13.63;8.77;;;;;;;-145.69;61.06;52234.47;5111881;28;21021;-82
2024/02/17 09:45:41;;;;;;;13.05;7.13;;;;;;;-145.69;62.83;52206.75;5112052;28;20197;-81
2024/02/17 09:48:11;;;;;;;13.00;7.63;;;;;;;-145.69;61.67;52196.84;5116033;28;20208;-80
2024/02/17 09:50:38;;;;;;;11.18;7.68;;;;;;;-145.69;61.77;52218.63;5115872;27;20240;-81
2024/02/17 09:53:07;;;;;;;12.90;8.02;;;;;;;-145.69;62.37;52202.78;5116085;28;20224;-81
2024/02/17 09:55:37;;;;;;;12.55;7.35;;;;;;;-145.69;61.14;52182.97;5115958;28;20202;-81
2024/02/17 09:58:04;;;;;;;14.68;6.95;;;;;;;-145.69;62.46;52196.84;5115481;28;20198;-82
2024/02/17 10:00:32;;;;;;;12.25;7.55;;;;;;;-145.69;61.15;52190.91;5116026;27;20197;-81
2024/02/17 10:03:04;;;;;;;13.15;6.53;;;;;;;-145.69;61.98;52188.91;5115811;28;20212;-81
2024/02/17 10:05:31;;;;;;;10.88;6.80;;;;;;;-145.69;59.56;52198.81;5115638;28;20205;-80
2024/02/17 10:07:58;;;;;;;10.93;6.53;;;;;;;-145.69;58.93;52198.81;5115239;28;20568;-81
2024/02/17 10:10:26;;;;;;;10.45;6.68;;;;;;;-145.69;58.48;52198.81;5115806;28;20541;-80
2024/02/17 10:12:53;;;;;;;8.85;6.10;;;;;;;-145.69;58.06;52198.81;5115641;28;20307;-80
2024/02/17 10:15:22;;;;;;;10.90;5.80;;;;;;;-145.69;57.11;52171.09;5114994;28;20189;-81
2024/02/17 10:17:53;;;;;;;10.23;5.93;;;;;;;-145.69;55.96;52186.94;5115138;28;20622;-79
2024/02/17 10:20:20;;;;;;;10.55;6.25;;;;;;;-145.69;55.59;52177.03;5115348;28;20651;-79
2024/02/17 10:22:47;;;;;;;10.07;5.50;;;;;;;-145.69;56.58;52218.63;5115364;28;20197;-80
2024/02/17 10:25:14;;;;;;;7.15;4.82;;;;;;;-145.69;56.85;52194.88;5115382;28;20706;-79
2024/02/17 10:27:44;;;;;;;8.80;6.03;;;;;;;-145.69;55.26;52179.03;5115572;27;20204;-79
2024/02/17 10:30:13;;;;;;;8.60;6.18;;;;;;;-145.69;55.90;52224.56;5115564;28;20197;-79
2024/02/17 10:32:40;;;;;;;11.50;6.07;;;;;;;-145.69;54.20;52234.47;5114549;28;20691;-79
2024/02/17 10:35:08;;;;;;;8.07;5.63;;;;;;;-145.69;55.24;52208.72;5115007;28;20204;-80
2024/02/17 10:37:38;;;;;;;11.32;6.78;;;;;;;-145.69;55.39;52171.09;5115220;28;20201;-78
2024/02/17 10:40:07;;;;;;;10.38;6.03;;;;;;;-145.69;56.62;52186.94;5115528;28;20220;-81
2024/02/17 10:42:36;;;;;;;9.65;5.80;;;;;;;-145.69;56.50;52190.91;5115293;28;20201;-80
2024/02/17 10:45:05;;;;;;;11.10;6.25;;;;;;;-145.69;56.03;52238.44;5114688;28;20204;-80
2024/02/17 10:47:35;;;;;;;9.27;5.93;;;;;;;-145.69;56.19;52188.91;5115134;28;20224;-80
2024/02/17 10:50:10;;;;;;;10.70;6.28;;;;;;;-145.69;55.74;52194.88;5114872;28;20233;-80
2024/02/17 10:52:43;;;;;;;9.05;5.82;;;;;;;-145.69;55.74;52194.88;5114924;28;20575;-80
2024/02/17 10:55:14;;;;;;;10.00;6.32;;;;;;;-145.69;56.08;52226.53;5114456;27;20206;-80
2024/02/17 10:57:53;;;;;;;12.82;6.95;;;;;;;-145.69;56.42;52202.78;5114871;28;20209;-80
2024/02/17 11:00:31;;;;;;;11.68;6.40;;;;;;;-145.69;56.13;52216.66;5114910;27;20201;-80
2024/02/17 11:03:14;;;;;;;11.63;6.63;;;;;;;-145.69;55.62;52202.78;5114420;28;20282;-79
2024/02/17 11:05:44;;;;;;;12.20;7.07;;;;;;;-145.69;55.59;52234.47;5114615;28;20606;-80
2024/02/17 11:08:11;;;;;;;10.13;6.18;;;;;;;-145.69;55.72;52167.13;5114711;28;20212;-80
2024/02/17 11:10:41;;;;;;;10.80;6.32;;;;;;;-145.69;54.80;52179.03;5114130;28;20193;-79
2024/02/17 11:13:22;;;;;;;9.82;6.13;;;;;;;-145.69;53.50;52186.94;5113905;28;20687;-79
2024/02/17 11:16:01;;;;;;;10.63;6.38;;;;;;;-145.69;53.24;52208.72;5106008;28;20199;-80
2024/02/17 11:18:28;;;;;;;9.05;5.55;;;;;;;-145.69;53.41;52167.13;5114168;28;20198;-80